Observation data for Muleshoe on 11/19/2019      Previous  Date       Current Mesonet Observations  Soil Data  Daily Summary Page  Observations in Plain Language
KMUS 190600Z 01002KT 02/M02 A30 RMK A01 T00161018  RH  079%=      5-min Rain = 0
KMUS 190605Z 02001KT 01/M02 A30 RMK A01 T00141019  RH  079%=      5-min Rain = 0
KMUS 190610Z 36001KT 01/M02 A30 RMK A01 T00111023  RH  079%=      5-min Rain = 0
KMUS 190615Z 30001KT 01/M02 A3001 RMK A01 T00081023  RH  080%=      5-min Rain = 0
KMUS 190620Z 31002KT 01/M02 A3001 RMK A01 T00071022  RH  081%=      5-min Rain = 0
KMUS 190625Z 32002KT 01/M02 A3001 RMK A01 T00121017  RH  082%=      5-min Rain = 0
KMUS 190630Z 01002KT 01/M02 A3001 RMK A01 T00111019  RH  081%=      5-min Rain = 0
KMUS 190635Z 09003KT 01/M02 A30 RMK A01 T00091023  RH  080%=      5-min Rain = 0
KMUS 190640Z 09002KT 00/M03 A30 RMK A01 T00041025  RH  081%=      5-min Rain = 0
KMUS 190645Z 08002KT 00/M02 A30 RMK A01 T00041022  RH  083%=      5-min Rain = 0
KMUS 190650Z 09003KT 01/M02 A30 RMK A01 T00061021  RH  083%=      5-min Rain = 0
KMUS 190655Z 10004KT 01/M02 A30 RMK A01 T00051023  RH  082%=      5-min Rain = 0
KMUS 190700Z 12004KT 00/M03 A30 RMK A01 T00041025  RH  082%=      5-min Rain = 0
KMUS 190705Z 10002KT 00/M03 A30 RMK A01 T00021025  RH  082%=      5-min Rain = 0
KMUS 190710Z 06001KT 01/M02 A30 RMK A01 T00051023  RH  082%=      5-min Rain = 0
KMUS 190715Z 35000KT 00/M03 A30 RMK A01 T00031025  RH  082%=      5-min Rain = 0
KMUS 190720Z 01000KT 01/M02 A30 RMK A01 T00061020  RH  083%=      5-min Rain = 0
KMUS 190725Z 29001KT 01/M02 A30 RMK A01 T00091020  RH  082%=      5-min Rain = 0
KMUS 190730Z 30005KT 01/M02 A3001 RMK A01 T00111019  RH  081%=      5-min Rain = 0
KMUS 190735Z 31005KT 01/M02 A30 RMK A01 T00101020  RH  081%=      5-min Rain = 0
KMUS 190740Z 32004KT 01/M02 A30 RMK A01 T00081021  RH  082%=      5-min Rain = 0
KMUS 190745Z 33004KT 01/M02 A30 RMK A01 T00061022  RH  082%=      5-min Rain = 0
KMUS 190750Z 32003KT 01/M02 A30 RMK A01 T00051022  RH  083%=      5-min Rain = 0
KMUS 190755Z 29004KT 01/M02 A30 RMK A01 T00061020  RH  084%=      5-min Rain = 0
KMUS 190800Z 27005KT 01/M02 A30 RMK A01 T00071019  RH  083%=      5-min Rain = 0
KMUS 190805Z 26006KT 01/M02 A3001 RMK A01 T00061021  RH  083%=      5-min Rain = 0
KMUS 190810Z 26005KT 01/M02 A3001 RMK A01 T00081018  RH  083%=      5-min Rain = 0
KMUS 190815Z 25003KT 01/M02 A3001 RMK A01 T00101018  RH  082%=      5-min Rain = 0
KMUS 190820Z 25002KT 01/M02 A3001 RMK A01 T00101018  RH  082%=      5-min Rain = 0
KMUS 190825Z 25002KT 01/M02 A3001 RMK A01 T00101018  RH  082%=      5-min Rain = 0
KMUS 190830Z 26002KT 01/M02 A3001 RMK A01 T00091020  RH  082%=      5-min Rain = 0
KMUS 190835Z 26003KT 01/M02 A3001 RMK A01 T00061022  RH  082%=      5-min Rain = 0
KMUS 190840Z 26005KT 00/M02 A3001 RMK A01 T00041024  RH  082%=      5-min Rain = 0
KMUS 190845Z 27006KT 00/M02 A3001 RMK A01 T00031023  RH  084%=      5-min Rain = 0
KMUS 190850Z 27006KT 01/M02 A3001 RMK A01 T00071017  RH  084%=      5-min Rain = 0
KMUS 190855Z 27006KT 01/M02 A3001 RMK A01 T00111016  RH  083%=      5-min Rain = 0
KMUS 190900Z 27007KT 01/M02 A3001 RMK A01 T00121017  RH  082%=      5-min Rain = 0
KMUS 190905Z 27005KT 01/M02 A3001 RMK A01 T00111019  RH  081%=      5-min Rain = 0
KMUS 190910Z 29002KT 01/M02 A3001 RMK A01 T00091020  RH  081%=      5-min Rain = 0
KMUS 190915Z 30002KT 01/M02 A30 RMK A01 T00091020  RH  082%=      5-min Rain = 0
KMUS 190920Z 30002KT 01/M02 A30 RMK A01 T00081020  RH  082%=      5-min Rain = 0
KMUS 190925Z 26002KT 01/M02 A30 RMK A01 T00061022  RH  082%=      5-min Rain = 0
KMUS 190930Z 25003KT 00/M03 A30 RMK A01 T00031026  RH  082%=      5-min Rain = 0
KMUS 190935Z 25004KT M00/M03 A30 RMK A01 T10041031  RH  082%=      5-min Rain = 0
KMUS 190940Z 24004KT M01/M03 A30 RMK A01 T10051029  RH  085%=      5-min Rain = 0
KMUS 190945Z 22003KT M01/M03 A30 RMK A01 T10051028  RH  085%=      5-min Rain = 0
KMUS 190950Z 22003KT M01/M03 A30 RMK A01 T10051027  RH  086%=      5-min Rain = 0
KMUS 190955Z 24003KT M00/M03 A30 RMK A01 T10041025  RH  086%=      5-min Rain = 0
KMUS 191000Z 21002KT M00/M03 A30 RMK A01 T10031025  RH  086%=      5-min Rain = 0
KMUS 191005Z 21002KT M00/M03 A2999 RMK A01 T10041025  RH  086%=      5-min Rain = 0
KMUS 191010Z 20003KT M00/M03 A2999 RMK A01 T10041025  RH  086%=      5-min Rain = 0
KMUS 191015Z 23004KT M01/M03 A2999 RMK A01 T10081031  RH  085%=      5-min Rain = 0
KMUS 191020Z 24005KT M01/M03 A2999 RMK A01 T10101029  RH  087%=      5-min Rain = 0
KMUS 191025Z 24003KT M01/M03 A2999 RMK A01 T10101029  RH  088%=      5-min Rain = 0
KMUS 191030Z 24002KT M01/M03 A2999 RMK A01 T10101029  RH  088%=      5-min Rain = 0
KMUS 191035Z 24002KT M01/M03 A2999 RMK A01 T10091027  RH  088%=      5-min Rain = 0
KMUS 191040Z 24002KT M01/M03 A2999 RMK A01 T10081026  RH  088%=      5-min Rain = 0
KMUS 191045Z 25002KT M01/M03 A2999 RMK A01 T10081027  RH  087%=      5-min Rain = 0
KMUS 191050Z 25003KT M01/M03 A2999 RMK A01 T10091028  RH  087%=      5-min Rain = 0
KMUS 191055Z 27002KT M01/M03 A2998 RMK A01 T10121033  RH  086%=      5-min Rain = 0
KMUS 191100Z 23002KT M02/M03 A2998 RMK A01 T10151034  RH  087%=      5-min Rain = 0
KMUS 191105Z 25001KT M02/M04 A2998 RMK A01 T10171036  RH  087%=      5-min Rain = 0
KMUS 191110Z 26002KT M02/M04 A2998 RMK A01 T10171036  RH  088%=      5-min Rain = 0
KMUS 191115Z 26000KT M02/M04 A2998 RMK A01 T10191037  RH  088%=      5-min Rain = 0
KMUS 191120Z 26001KT M02/M04 A2998 RMK A01 T10191037  RH  088%=      5-min Rain = 0
KMUS 191125Z 26002KT M02/M04 A2998 RMK A01 T10221040  RH  088%=      5-min Rain = 0
KMUS 191130Z 27003KT M02/M04 A2998 RMK A01 T10221039  RH  089%=      5-min Rain = 0
KMUS 191135Z 26003KT M02/M04 A2997 RMK A01 T10201036  RH  089%=      5-min Rain = 0
KMUS 191140Z 26003KT M02/M04 A2997 RMK A01 T10191036  RH  089%=      5-min Rain = 0
KMUS 191145Z 26003KT M02/M04 A2997 RMK A01 T10191035  RH  089%=      5-min Rain = 0
KMUS 191150Z 28002KT M02/M03 A2997 RMK A01 T10171033  RH  089%=      5-min Rain = 0
KMUS 191155Z 28002KT M02/M03 A2997 RMK A01 T10171034  RH  089%=      5-min Rain = 0
KMUS 191200Z 28004KT M02/M04 A2997 RMK A01 T10191036  RH  088%=      5-min Rain = 0
KMUS 191205Z 28004KT M02/M04 A2997 RMK A01 T10211038  RH  089%=      5-min Rain = 0
KMUS 191210Z 28004KT M02/M04 A2997 RMK A01 T10201036  RH  089%=      5-min Rain = 0
KMUS 191215Z 28004KT M02/M04 A2997 RMK A01 T10201035  RH  089%=      5-min Rain = 0
KMUS 191220Z 27004KT M02/M04 A2997 RMK A01 T10201035  RH  090%=      5-min Rain = 0
KMUS 191225Z 26005KT M02/M04 A2997 RMK A01 T10201035  RH  090%=      5-min Rain = 0
KMUS 191230Z 24003KT M02/M03 A2997 RMK A01 T10191033  RH  090%=      5-min Rain = 0
KMUS 191235Z 23002KT M02/M03 A2996 RMK A01 T10191034  RH  090%=      5-min Rain = 0
KMUS 191240Z 24002KT M02/M03 A2996 RMK A01 T10191034  RH  090%=      5-min Rain = 0
KMUS 191245Z 26003KT M02/M04 A2997 RMK A01 T10211035  RH  090%=      5-min Rain = 0
KMUS 191250Z 25003KT M02/M04 A2997 RMK A01 T10231038  RH  090%=      5-min Rain = 0
KMUS 191255Z 24003KT M03/M04 A2997 RMK A01 T10251040  RH  090%=      5-min Rain = 0
KMUS 191300Z 24003KT M02/M04 A2997 RMK A01 T10241038  RH  091%=      5-min Rain = 0
KMUS 191305Z 26006KT M02/M04 A2997 RMK A01 T10221035  RH  091%=      5-min Rain = 0
KMUS 191310Z 26006KT M02/M03 A2997 RMK A01 T10201032  RH  092%=      5-min Rain = 0
KMUS 191315Z 25005KT M02/M03 A2997 RMK A01 T10171030  RH  092%=      5-min Rain = 0
KMUS 191320Z 25004KT M01/M03 A2997 RMK A01 T10141027  RH  091%=      5-min Rain = 0
KMUS 191325Z 26002KT M02/M03 A2997 RMK A01 T10151031  RH  090%=      5-min Rain = 0
KMUS 191330Z 27004KT M02/M03 A2997 RMK A01 T10171033  RH  089%=      5-min Rain = 0
KMUS 191335Z 27003KT M02/M03 A2997 RMK A01 T10171032  RH  090%=      5-min Rain = 0
KMUS 191340Z 26005KT M02/M03 A2997 RMK A01 T10161031  RH  090%=      5-min Rain = 0
KMUS 191345Z 25003KT M01/M03 A2997 RMK A01 T10141029  RH  090%=      5-min Rain = 0
KMUS 191350Z 21002KT M01/M03 A2997 RMK A01 T10111026  RH  090%=      5-min Rain = 0
KMUS 191355Z 24001KT M01/M02 A2997 RMK A01 T10081022  RH  090%=      5-min Rain = 0
KMUS 191400Z 26002KT M00/M02 A2998 RMK A01 T10041020  RH  090%=      5-min Rain = 0
KMUS 191405Z 29006KT 00/M02 A2998 RMK A01 T00021015  RH  090%=      5-min Rain = 0
KMUS 191410Z 29007KT 01/M01 A2998 RMK A01 T00111010  RH  087%=      5-min Rain = 0
KMUS 191415Z 28008KT 03/M01 A2998 RMK A01 T00251005  RH  081%=      5-min Rain = 0
KMUS 191420Z 28005KT 03/M01 A2998 RMK A01 T00341006  RH  076%=      5-min Rain = 0
KMUS 191425Z 28005KT 04/M01 A2998 RMK A01 T00381005  RH  074%=      5-min Rain = 0
KMUS 191430Z 25003KT 04/M00 A2998 RMK A01 T00441002  RH  073%=      5-min Rain = 0
KMUS 191435Z 24003KT 05/M00 A2998 RMK A01 T00501003  RH  069%=      5-min Rain = 0
KMUS 191440Z 24003KT 06/M00 A2998 RMK A01 T00561001  RH  068%=      5-min Rain = 0
KMUS 191445Z 25004KT 06/M00 A2998 RMK A01 T00601001  RH  066%=      5-min Rain = 0
KMUS 191450Z 24003KT 07/00 A2998 RMK A01 T006500-0  RH  064%=      5-min Rain = 0
KMUS 191455Z 25004KT 07/00 A2998 RMK A01 T00720001  RH  062%=      5-min Rain = 0
KMUS 191500Z 26004KT 08/00 A2998 RMK A01 T00780001  RH  059%=      5-min Rain = 0
KMUS 191505Z 26004KT 08/00 A2998 RMK A01 T00820002  RH  058%=      5-min Rain = 0
KMUS 191510Z 27004KT 09/01 A2998 RMK A01 T00900005  RH  056%=      5-min Rain = 0
KMUS 191515Z 25004KT 10/00 A2998 RMK A01 T00970004  RH  053%=      5-min Rain = 0
KMUS 191520Z 25005KT 10/00 A2998 RMK A01 T01030004  RH  051%=      5-min Rain = 0
KMUS 191525Z 25005KT 11/00 A2998 RMK A01 T01090004  RH  049%=      5-min Rain = 0
KMUS 191530Z 22003KT 11/01 A2998 RMK A01 T01140007  RH  048%=      5-min Rain = 0
KMUS 191535Z 19004KT 12/01 A2998 RMK A01 T01230009  RH  046%=      5-min Rain = 0
KMUS 191540Z 19004KT 13/01 A2998 RMK A01 T01300009  RH  044%=      5-min Rain = 0
KMUS 191545Z 18006KT 14/01 A2998 RMK A01 T01410007  RH  041%=      5-min Rain = 0
KMUS 191550Z 18007KT 15/00 A2997 RMK A01 T01480003  RH  038%=      5-min Rain = 0
KMUS 191555Z 18007KT 15/00 A2997 RMK A01 T01510002  RH  037%=      5-min Rain = 0
KMUS 191600Z 18008KT 15/00 A2997 RMK A01 T01540003  RH  036%=      5-min Rain = 0
KMUS 191605Z 18009G14KT 16/00 A2997 RMK A01 T01630003  RH  034%=      5-min Rain = 0
KMUS 191610Z 17011KT 17/00 A2996 RMK A01 T01740001  RH  031%=      5-min Rain = 0
KMUS 191615Z 18010KT 18/00 A2996 RMK A01 T01800001  RH  030%=      5-min Rain = 0
KMUS 191620Z 18012KT 18/M00 A2996 RMK A01 T01831001  RH  029%=      5-min Rain = 0
KMUS 191625Z 19013KT 18/M00 A2996 RMK A01 T01831001  RH  029%=      5-min Rain = 0
KMUS 191630Z 19012KT 18/00 A2996 RMK A01 T01840001  RH  029%=      5-min Rain = 0
KMUS 191635Z 19013KT 19/00 A2996 RMK A01 T018600-0  RH  029%=      5-min Rain = 0
KMUS 191640Z 19014KT 19/M00 A2996 RMK A01 T01891001  RH  028%=      5-min Rain = 0
KMUS 191645Z 19012G17KT 19/M00 A2996 RMK A01 T01921002  RH  028%=      5-min Rain = 0
KMUS 191650Z 20013G18KT 20/M00 A2996 RMK A01 T01991002  RH  026%=      5-min Rain = 0
KMUS 191655Z 19013KT 20/M01 A2995 RMK A01 T02011006  RH  025%=      5-min Rain = 0
KMUS 191700Z 19012KT 21/M01 A2995 RMK A01 T02051006  RH  025%=      5-min Rain = 0
KMUS 191705Z 20013KT 21/M01 A2995 RMK A01 T02081006  RH  024%=      5-min Rain = 0
KMUS 191710Z 20015KT 21/M01 A2995 RMK A01 T02071008  RH  024%=      5-min Rain = 0
KMUS 191715Z 19014G19KT 21/M01 A2995 RMK A01 T02071007  RH  024%=      5-min Rain = 0
KMUS 191720Z 20014G19KT 21/M01 A2994 RMK A01 T02101009  RH  023%=      5-min Rain = 0
KMUS 191725Z 19015KT 21/M01 A2994 RMK A01 T02131012  RH  022%=      5-min Rain = 0
KMUS 191730Z 20012G19KT 22/M01 A2994 RMK A01 T02161011  RH  022%=      5-min Rain = 0
KMUS 191735Z 20012KT 22/M01 A2994 RMK A01 T02201010  RH  022%=      5-min Rain = 0
KMUS 191740Z 19014KT 22/M01 A2993 RMK A01 T02211011  RH  021%=      5-min Rain = 0
KMUS 191745Z 20014G19KT 22/M01 A2993 RMK A01 T02211012  RH  021%=      5-min Rain = 0
KMUS 191750Z 21015KT 22/M01 A2993 RMK A01 T02241014  RH  021%=      5-min Rain = 0
KMUS 191755Z 21016G24KT 23/M02 A2992 RMK A01 T02261018  RH  020%=      5-min Rain = 0
KMUS 191800Z 21017G22KT 23/M02 A2992 RMK A01 T02301023  RH  018%=      5-min Rain = 0
KMUS 191805Z 21019G25KT 23/M03 A2992 RMK A01 T02281025  RH  018%=      5-min Rain = 0
KMUS 191810Z 21017G24KT 23/M02 A2991 RMK A01 T02271024  RH  019%=      5-min Rain = 0
KMUS 191815Z 20017G24KT 23/M02 A2991 RMK A01 T02311023  RH  018%=      5-min Rain = 0
KMUS 191820Z 20016KT 23/M02 A2991 RMK A01 T02301023  RH  019%=      5-min Rain = 0
KMUS 191825Z 20016G24KT 23/M02 A299 RMK A01 T02341022  RH  018%=      5-min Rain = 0
KMUS 191830Z 20018G25KT 24/M02 A299 RMK A01 T02351023  RH  018%=      5-min Rain = 0
KMUS 191835Z 20018G24KT 23/M02 A299 RMK A01 T02331023  RH  018%=      5-min Rain = 0
KMUS 191840Z 21016KT 23/M03 A299 RMK A01 T02311025  RH  018%=      5-min Rain = 0
KMUS 191845Z 20016KT 23/M02 A2989 RMK A01 T02311024  RH  018%=      5-min Rain = 0
KMUS 191850Z 20016G22KT 24/M02 A2989 RMK A01 T02361023  RH  018%=      5-min Rain = 0
KMUS 191855Z 19017G22KT 24/M02 A2989 RMK A01 T02401024  RH  017%=      5-min Rain = 0
KMUS 191900Z 20017G22KT 24/M03 A2988 RMK A01 T02371025  RH  018%=      5-min Rain = 0
KMUS 191905Z 20018G23KT 23/M03 A2988 RMK A01 T02341025  RH  018%=      5-min Rain = 0
KMUS 191910Z 20016G23KT 24/M02 A2988 RMK A01 T02361024  RH  018%=      5-min Rain = 0
KMUS 191915Z 20016G21KT 23/M03 A2988 RMK A01 T02331025  RH  018%=      5-min Rain = 0
KMUS 191920Z 19016G21KT 23/M03 A2988 RMK A01 T02311026  RH  018%=      5-min Rain = 0
KMUS 191925Z 19016G25KT 23/M02 A2987 RMK A01 T02301024  RH  018%=      5-min Rain = 0
KMUS 191930Z 20014G19KT 23/M02 A2987 RMK A01 T02311024  RH  018%=      5-min Rain = 0
KMUS 191935Z 20014KT 24/M02 A2986 RMK A01 T02361024  RH  018%=      5-min Rain = 0
KMUS 191940Z 21017G23KT 24/M03 A2986 RMK A01 T02421026  RH  017%=      5-min Rain = 0
KMUS 191945Z 22016G21KT 24/M03 A2986 RMK A01 T02401028  RH  017%=      5-min Rain = 0
KMUS 191950Z 21015KT 24/M03 A2985 RMK A01 T02421028  RH  017%=      5-min Rain = 0
KMUS 191955Z 21016G22KT 25/M03 A2985 RMK A01 T02451027  RH  016%=      5-min Rain = 0
KMUS 192000Z 21016G21KT 25/M03 A2984 RMK A01 T02461028  RH  016%=      5-min Rain = 0
KMUS 192005Z 20015G20KT 25/M03 A2984 RMK A01 T02451027  RH  016%=      5-min Rain = 0
KMUS 192010Z 20015G21KT 24/M03 A2984 RMK A01 T02431026  RH  017%=      5-min Rain = 0
KMUS 192015Z 20014G21KT 24/M02 A2984 RMK A01 T02441023  RH  017%=      5-min Rain = 0
KMUS 192020Z 21014G21KT 25/M03 A2983 RMK A01 T02521029  RH  016%=      5-min Rain = 0
KMUS 192025Z 20017KT 25/M03 A2983 RMK A01 T02521028  RH  016%=      5-min Rain = 0
KMUS 192030Z 20015KT 26/M03 A2983 RMK A01 T02561031  RH  015%=      5-min Rain = 0
KMUS 192035Z 21015KT 26/M03 A2982 RMK A01 T02561033  RH  015%=      5-min Rain = 0
KMUS 192040Z 21014G21KT 26/M03 A2982 RMK A01 T02591032  RH  015%=      5-min Rain = 0
KMUS 192045Z 21014G21KT 26/M03 A2982 RMK A01 T02571033  RH  015%=      5-min Rain = 0
KMUS 192050Z 20016G23KT 26/M03 A2981 RMK A01 T02571034  RH  014%=      5-min Rain = 0
KMUS 192055Z 21016G21KT 26/M04 A2981 RMK A01 T02551036  RH  014%=      5-min Rain = 0
KMUS 192100Z 20017G22KT 25/M04 A2981 RMK A01 T02541035  RH  015%=      5-min Rain = 0
KMUS 192105Z 21015G20KT 25/M04 A2981 RMK A01 T02541035  RH  015%=      5-min Rain = 0
KMUS 192110Z 20015G21KT 26/M04 A2981 RMK A01 T02561035  RH  014%=      5-min Rain = 0
KMUS 192115Z 21014G20KT 26/M04 A2981 RMK A01 T02561035  RH  015%=      5-min Rain = 0
KMUS 192120Z 21014G20KT 26/M03 A2981 RMK A01 T02571034  RH  015%=      5-min Rain = 0
KMUS 192125Z 21015G20KT 26/M04 A2981 RMK A01 T02551036  RH  014%=      5-min Rain = 0
KMUS 192130Z 22014KT 25/M04 A2981 RMK A01 T02541038  RH  014%=      5-min Rain = 0
KMUS 192135Z 22014G19KT 25/M04 A2981 RMK A01 T02541038  RH  014%=      5-min Rain = 0
KMUS 192140Z 21013KT 26/M04 A2981 RMK A01 T02561037  RH  014%=      5-min Rain = 0
KMUS 192145Z 20014G19KT 26/M04 A2981 RMK A01 T02561038  RH  014%=      5-min Rain = 0
KMUS 192150Z 20015KT 26/M04 A298 RMK A01 T02551039  RH  014%=      5-min Rain = 0
KMUS 192155Z 21012G17KT 26/M04 A298 RMK A01 T02561037  RH  014%=      5-min Rain = 0
KMUS 192200Z 21011KT 26/M04 A298 RMK A01 T02571037  RH  014%=      5-min Rain = 0
KMUS 192205Z 20012KT 26/M04 A298 RMK A01 T02551037  RH  014%=      5-min Rain = 0
KMUS 192210Z 19012G17KT 26/M04 A298 RMK A01 T02551036  RH  014%=      5-min Rain = 0
KMUS 192215Z 19013G18KT 25/M04 A298 RMK A01 T02471036  RH  015%=      5-min Rain = 0
KMUS 192220Z 20013G18KT 24/M03 A298 RMK A01 T02401033  RH  016%=      5-min Rain = 0
KMUS 192225Z 20013KT 24/M04 A298 RMK A01 T02361035  RH  016%=      5-min Rain = 0
KMUS 192230Z 20011G16KT 24/M03 A298 RMK A01 T02351034  RH  017%=      5-min Rain = 0
KMUS 192235Z 20012KT 24/M04 A298 RMK A01 T02371035  RH  016%=      5-min Rain = 0
KMUS 192240Z 20011KT 24/M04 A298 RMK A01 T02351036  RH  016%=      5-min Rain = 0
KMUS 192245Z 21012KT 23/M04 A298 RMK A01 T02341041  RH  016%=      5-min Rain = 0
KMUS 192250Z 21010KT 23/M04 A298 RMK A01 T02311040  RH  016%=      5-min Rain = 0
KMUS 192255Z 21010KT 23/M04 A298 RMK A01 T02271039  RH  017%=      5-min Rain = 0
KMUS 192300Z 21010KT 23/M04 A298 RMK A01 T02261041  RH  017%=      5-min Rain = 0
KMUS 192305Z 21009KT 22/M04 A298 RMK A01 T02231041  RH  017%=      5-min Rain = 0
KMUS 192310Z 22009KT 22/M04 A298 RMK A01 T02201040  RH  017%=      5-min Rain = 0
KMUS 192315Z 22008KT 22/M04 A298 RMK A01 T02171039  RH  018%=      5-min Rain = 0
KMUS 192320Z 22007KT 21/M04 A298 RMK A01 T02121039  RH  018%=      5-min Rain = 0
KMUS 192325Z 21008KT 21/M04 A298 RMK A01 T02061037  RH  019%=      5-min Rain = 0
KMUS 192330Z 21008KT 20/M04 A298 RMK A01 T02001036  RH  020%=      5-min Rain = 0
KMUS 192335Z 21007KT 19/M03 A298 RMK A01 T01931034  RH  021%=      5-min Rain = 0
KMUS 192340Z 21007KT 18/M03 A298 RMK A01 T01841033  RH  023%=      5-min Rain = 0
KMUS 192345Z 20007KT 18/M03 A298 RMK A01 T01761031  RH  024%=      5-min Rain = 0
KMUS 192350Z 19007KT 17/M03 A2981 RMK A01 T01681027  RH  026%=      5-min Rain = 0
KMUS 192355Z 19007KT 16/M02 A2981 RMK A01 T01641024  RH  028%=      5-min Rain = 0
KMUS 200000Z 20007KT 16/M02 A298 RMK A01 T01611021  RH  029%=      5-min Rain = 0
KMUS 200005Z 20007KT 16/M02 A298 RMK A01 T01551020  RH  030%=      5-min Rain = 0
KMUS 200010Z 19009KT 15/M02 A298 RMK A01 T01521022  RH  030%=      5-min Rain = 0
KMUS 200015Z 19008KT 16/M02 A298 RMK A01 T01551024  RH  029%=      5-min Rain = 0
KMUS 200020Z 19008KT 16/M03 A298 RMK A01 T01571027  RH  028%=      5-min Rain = 0
KMUS 200025Z 19008KT 16/M03 A298 RMK A01 T01591027  RH  028%=      5-min Rain = 0
KMUS 200030Z 19007KT 16/M03 A298 RMK A01 T01561025  RH  029%=      5-min Rain = 0
KMUS 200035Z 19008KT 15/M03 A298 RMK A01 T01511025  RH  030%=      5-min Rain = 0
KMUS 200040Z 19008KT 15/M03 A298 RMK A01 T01541026  RH  029%=      5-min Rain = 0
KMUS 200045Z 19008KT 15/M03 A298 RMK A01 T01511026  RH  030%=      5-min Rain = 0
KMUS 200050Z 17010KT 15/M03 A298 RMK A01 T01471027  RH  030%=      5-min Rain = 0
KMUS 200055Z 17010KT 15/M03 A298 RMK A01 T01491029  RH  029%=      5-min Rain = 0
KMUS 200100Z 20007KT 15/M03 A2981 RMK A01 T01451029  RH  030%=      5-min Rain = 0
KMUS 200105Z 19009KT 14/M03 A2981 RMK A01 T01421029  RH  031%=      5-min Rain = 0
KMUS 200110Z 22008KT 15/M03 A2981 RMK A01 T01471030  RH  029%=      5-min Rain = 0
KMUS 200115Z 20007KT 15/M03 A2981 RMK A01 T01451030  RH  030%=      5-min Rain = 0
KMUS 200120Z 19009KT 14/M03 A2981 RMK A01 T01401028  RH  031%=      5-min Rain = 0
KMUS 200125Z 19010KT 14/M03 A2981 RMK A01 T01371028  RH  032%=      5-min Rain = 0
KMUS 200130Z 19009KT 14/M03 A2981 RMK A01 T01371025  RH  033%=      5-min Rain = 0
KMUS 200135Z 19010KT 14/M02 A2981 RMK A01 T01401024  RH  032%=      5-min Rain = 0
KMUS 200140Z 19010KT 14/M02 A2981 RMK A01 T01421022  RH  032%=      5-min Rain = 0
KMUS 200145Z 18012KT 15/M02 A2981 RMK A01 T01461021  RH  032%=      5-min Rain = 0
KMUS 200150Z 18011KT 15/M02 A2981 RMK A01 T01491021  RH  031%=      5-min Rain = 0
KMUS 200155Z 18012KT 15/M02 A2981 RMK A01 T01491021  RH  031%=      5-min Rain = 0
KMUS 200200Z 18012KT 15/M02 A2981 RMK A01 T01491021  RH  031%=      5-min Rain = 0
KMUS 200205Z 18012KT 15/M02 A2982 RMK A01 T01471021  RH  032%=      5-min Rain = 0
KMUS 200210Z 18012KT 14/M02 A2982 RMK A01 T01441021  RH  032%=      5-min Rain = 0
KMUS 200215Z 18012KT 14/M02 A2982 RMK A01 T01421021  RH  033%=      5-min Rain = 0
KMUS 200220Z 18012KT 14/M02 A2982 RMK A01 T01411021  RH  033%=      5-min Rain = 0
KMUS 200225Z 19011KT 14/M02 A2982 RMK A01 T01391022  RH  033%=      5-min Rain = 0
KMUS 200230Z 19011KT 14/M02 A2982 RMK A01 T01391022  RH  033%=      5-min Rain = 0
KMUS 200235Z 18010KT 14/M02 A2982 RMK A01 T01391022  RH  033%=      5-min Rain = 0
KMUS 200240Z 19009KT 14/M02 A2982 RMK A01 T01381022  RH  033%=      5-min Rain = 0
KMUS 200245Z 19009KT 14/M02 A2982 RMK A01 T01351022  RH  034%=      5-min Rain = 0
KMUS 200250Z 19009KT 13/M02 A2982 RMK A01 T01321021  RH  035%=      5-min Rain = 0
KMUS 200255Z 19008KT 13/M02 A2982 RMK A01 T01291020  RH  036%=      5-min Rain = 0
KMUS 200300Z 19009KT 13/M02 A2982 RMK A01 T01261018  RH  037%=      5-min Rain = 0
KMUS 200305Z 19008KT 12/M02 A2982 RMK A01 T01241017  RH  038%=      5-min Rain = 0
KMUS 200310Z 19007KT 12/M02 A2982 RMK A01 T01201017  RH  039%=      5-min Rain = 0
KMUS 200315Z 18007KT 12/M02 A2982 RMK A01 T01151017  RH  040%=      5-min Rain = 0
KMUS 200320Z 18007KT 11/M02 A2982 RMK A01 T01141016  RH  041%=      5-min Rain = 0
KMUS 200325Z 18008KT 11/M02 A2982 RMK A01 T01141015  RH  041%=      5-min Rain = 0
KMUS 200330Z 19008KT 12/M01 A2982 RMK A01 T01151014  RH  041%=      5-min Rain = 0
KMUS 200335Z 18009KT 12/M01 A2982 RMK A01 T01161014  RH  041%=      5-min Rain = 0
KMUS 200340Z 18009KT 12/M01 A2982 RMK A01 T01171013  RH  041%=      5-min Rain = 0
KMUS 200345Z 18010KT 12/M01 A2982 RMK A01 T01191013  RH  040%=      5-min Rain = 0
KMUS 200350Z 18010KT 12/M01 A2982 RMK A01 T01191013  RH  040%=      5-min Rain = 0
KMUS 200355Z 18010KT 12/M01 A2982 RMK A01 T01211012  RH  040%=      5-min Rain = 0
KMUS 200400Z 18010KT 12/M01 A2982 RMK A01 T01241012  RH  039%=      5-min Rain = 0
KMUS 200405Z 18010KT 13/M01 A2982 RMK A01 T01291012  RH  038%=      5-min Rain = 0
KMUS 200410Z 18010KT 13/M01 A2982 RMK A01 T01301012  RH  038%=      5-min Rain = 0
KMUS 200415Z 18010KT 13/M01 A2982 RMK A01 T01311011  RH  038%=      5-min Rain = 0
KMUS 200420Z 19010KT 13/M01 A2982 RMK A01 T01331011  RH  037%=      5-min Rain = 0
KMUS 200425Z 19012KT 14/M01 A2982 RMK A01 T01371012  RH  036%=      5-min Rain = 0
KMUS 200430Z 19012KT 14/M01 A2982 RMK A01 T01391011  RH  036%=      5-min Rain = 0
KMUS 200435Z 19013KT 14/M01 A2981 RMK A01 T01401011  RH  035%=      5-min Rain = 0
KMUS 200440Z 18013KT 14/M01 A2981 RMK A01 T01401011  RH  036%=      5-min Rain = 0
KMUS 200445Z 19013KT 14/M01 A2982 RMK A01 T01391010  RH  036%=      5-min Rain = 0
KMUS 200450Z 19012KT 14/M01 A2981 RMK A01 T01381010  RH  036%=      5-min Rain = 0
KMUS 200455Z 18013KT 14/M01 A2981 RMK A01 T01381010  RH  036%=      5-min Rain = 0
KMUS 200500Z 19013KT 14/M01 A2982 RMK A01 T01371009  RH  037%=      5-min Rain = 0
KMUS 200505Z 19013KT 14/M01 A2982 RMK A01 T01371008  RH  037%=      5-min Rain = 0
KMUS 200510Z 19013KT 14/M01 A2981 RMK A01 T01361007  RH  038%=      5-min Rain = 0
KMUS 200515Z 20012KT 14/M01 A2981 RMK A01 T01361006  RH  038%=      5-min Rain = 0
KMUS 200520Z 20011KT 13/M01 A2982 RMK A01 T01331005  RH  039%=      5-min Rain = 0
KMUS 200525Z 20011KT 13/M00 A2982 RMK A01 T01311004  RH  040%=      5-min Rain = 0
KMUS 200530Z 20012KT 13/M00 A2982 RMK A01 T01311004  RH  040%=      5-min Rain = 0
KMUS 200535Z 20011KT 13/M00 A2982 RMK A01 T01291003  RH  041%=      5-min Rain = 0
KMUS 200540Z 20011KT 13/M00 A2981 RMK A01 T01291002  RH  041%=      5-min Rain = 0
KMUS 200545Z 20010KT 13/M00 A2981 RMK A01 T01301001  RH  041%=      5-min Rain = 0
KMUS 200550Z 20010KT 13/00 A2981 RMK A01 T01300000  RH  041%=      5-min Rain = 0
KMUS 200555Z 20010KT 13/00 A2981 RMK A01 T01310001  RH  041%=      5-min Rain = 0

Page generated in 0.0089 seconds.